sensor_id;sensor_type;location;lat;lon;timestamp;P1;durP1;ratioP1;P2;durP2;ratioP2
1479;SDS011;732;51.698;4.886;2022-08-19T00:01:57;30.33;;;16.50;;
1479;SDS011;732;51.698;4.886;2022-08-19T00:04:28;27.50;;;16.20;;
1479;SDS011;732;51.698;4.886;2022-08-19T00:07:00;29.30;;;16.93;;
1479;SDS011;732;51.698;4.886;2022-08-19T00:09:29;27.50;;;15.93;;
1479;SDS011;732;51.698;4.886;2022-08-19T00:11:57;28.67;;;16.77;;
1479;SDS011;732;51.698;4.886;2022-08-19T00:14:27;28.60;;;18.30;;
1479;SDS011;732;51.698;4.886;2022-08-19T00:16:58;30.47;;;17.70;;
1479;SDS011;732;51.698;4.886;2022-08-19T00:19:30;33.40;;;18.40;;
1479;SDS011;732;51.698;4.886;2022-08-19T00:21:59;27.27;;;16.83;;
1479;SDS011;732;51.698;4.886;2022-08-19T00:24:28;30.57;;;17.23;;
1479;SDS011;732;51.698;4.886;2022-08-19T00:26:57;30.83;;;19.73;;
1479;SDS011;732;51.698;4.886;2022-08-19T00:29:47;30.20;;;18.40;;
1479;SDS011;732;51.698;4.886;2022-08-19T00:32:18;33.70;;;17.83;;
1479;SDS011;732;51.698;4.886;2022-08-19T00:34:48;34.00;;;20.37;;
1479;SDS011;732;51.698;4.886;2022-08-19T00:37:16;32.00;;;20.20;;
1479;SDS011;732;51.698;4.886;2022-08-19T00:39:45;39.53;;;21.63;;
1479;SDS011;732;51.698;4.886;2022-08-19T00:42:14;34.17;;;20.37;;
1479;SDS011;732;51.698;4.886;2022-08-19T00:44:43;33.40;;;20.80;;
1479;SDS011;732;51.698;4.886;2022-08-19T00:47:12;38.30;;;21.90;;
1479;SDS011;732;51.698;4.886;2022-08-19T00:49:42;39.07;;;23.27;;
1479;SDS011;732;51.698;4.886;2022-08-19T00:52:19;31.83;;;20.57;;
1479;SDS011;732;51.698;4.886;2022-08-19T00:54:55;35.67;;;20.60;;
1479;SDS011;732;51.698;4.886;2022-08-19T00:57:27;37.87;;;22.40;;
1479;SDS011;732;51.698;4.886;2022-08-19T01:00:00;39.37;;;21.40;;
1479;SDS011;732;51.698;4.886;2022-08-19T01:02:32;34.97;;;22.40;;
1479;SDS011;732;51.698;4.886;2022-08-19T01:05:03;32.53;;;20.20;;
1479;SDS011;732;51.698;4.886;2022-08-19T01:07:37;36.07;;;22.00;;
1479;SDS011;732;51.698;4.886;2022-08-19T01:10:08;39.10;;;19.90;;
1479;SDS011;732;51.698;4.886;2022-08-19T01:12:40;34.87;;;20.60;;
1479;SDS011;732;51.698;4.886;2022-08-19T01:15:11;36.37;;;21.47;;
1479;SDS011;732;51.698;4.886;2022-08-19T01:17:44;40.43;;;22.03;;
1479;SDS011;732;51.698;4.886;2022-08-19T01:20:14;37.97;;;22.77;;
1479;SDS011;732;51.698;4.886;2022-08-19T01:22:51;34.50;;;20.10;;
1479;SDS011;732;51.698;4.886;2022-08-19T01:25:22;32.50;;;19.20;;
1479;SDS011;732;51.698;4.886;2022-08-19T01:28:00;34.43;;;20.57;;
1479;SDS011;732;51.698;4.886;2022-08-19T01:30:36;30.97;;;18.63;;
1479;SDS011;732;51.698;4.886;2022-08-19T01:33:16;33.37;;;19.27;;
1479;SDS011;732;51.698;4.886;2022-08-19T01:35:46;32.97;;;18.90;;
1479;SDS011;732;51.698;4.886;2022-08-19T01:38:21;32.03;;;18.00;;
1479;SDS011;732;51.698;4.886;2022-08-19T01:40:52;34.23;;;18.90;;
1479;SDS011;732;51.698;4.886;2022-08-19T01:43:21;32.53;;;18.50;;
1479;SDS011;732;51.698;4.886;2022-08-19T01:45:49;31.53;;;17.87;;
1479;SDS011;732;51.698;4.886;2022-08-19T01:48:19;31.70;;;17.77;;
1479;SDS011;732;51.698;4.886;2022-08-19T01:50:48;31.87;;;18.00;;
1479;SDS011;732;51.698;4.886;2022-08-19T01:53:17;32.07;;;17.63;;
1479;SDS011;732;51.698;4.886;2022-08-19T01:55:48;31.57;;;17.87;;
1479;SDS011;732;51.698;4.886;2022-08-19T01:58:17;34.37;;;18.30;;
1479;SDS011;732;51.698;4.886;2022-08-19T02:00:50;30.90;;;17.73;;
1479;SDS011;732;51.698;4.886;2022-08-19T02:03:19;32.37;;;18.30;;
1479;SDS011;732;51.698;4.886;2022-08-19T02:05:47;35.77;;;19.63;;
1479;SDS011;732;51.698;4.886;2022-08-19T02:08:21;36.63;;;19.63;;
1479;SDS011;732;51.698;4.886;2022-08-19T02:10:50;33.13;;;19.70;;
1479;SDS011;732;51.698;4.886;2022-08-19T02:13:20;39.67;;;22.47;;
1479;SDS011;732;51.698;4.886;2022-08-19T02:15:51;37.47;;;19.60;;
1479;SDS011;732;51.698;4.886;2022-08-19T02:18:20;34.97;;;19.07;;
1479;SDS011;732;51.698;4.886;2022-08-19T02:20:53;35.40;;;19.80;;
1479;SDS011;732;51.698;4.886;2022-08-19T02:23:22;38.63;;;20.67;;
1479;SDS011;732;51.698;4.886;2022-08-19T02:25:51;38.67;;;21.30;;
1479;SDS011;732;51.698;4.886;2022-08-19T02:28:20;40.07;;;22.27;;
1479;SDS011;732;51.698;4.886;2022-08-19T02:30:48;38.70;;;21.03;;
1479;SDS011;732;51.698;4.886;2022-08-19T02:33:17;48.10;;;24.20;;
1479;SDS011;732;51.698;4.886;2022-08-19T02:35:46;38.07;;;21.60;;
1479;SDS011;732;51.698;4.886;2022-08-19T02:38:14;42.80;;;23.87;;
1479;SDS011;732;51.698;4.886;2022-08-19T02:40:56;45.57;;;23.47;;
1479;SDS011;732;51.698;4.886;2022-08-19T02:43:33;45.47;;;22.50;;
1479;SDS011;732;51.698;4.886;2022-08-19T02:46:10;46.17;;;23.37;;
1479;SDS011;732;51.698;4.886;2022-08-19T02:48:40;38.40;;;21.40;;
1479;SDS011;732;51.698;4.886;2022-08-19T02:51:15;43.23;;;22.50;;
1479;SDS011;732;51.698;4.886;2022-08-19T02:53:44;46.60;;;24.40;;
1479;SDS011;732;51.698;4.886;2022-08-19T02:56:15;49.03;;;23.30;;
1479;SDS011;732;51.698;4.886;2022-08-19T02:58:43;47.37;;;23.13;;
1479;SDS011;732;51.698;4.886;2022-08-19T03:01:19;44.70;;;23.10;;
1479;SDS011;732;51.698;4.886;2022-08-19T03:03:49;46.80;;;23.23;;
1479;SDS011;732;51.698;4.886;2022-08-19T03:06:18;45.27;;;23.77;;
1479;SDS011;732;51.698;4.886;2022-08-19T03:08:48;52.33;;;25.90;;
1479;SDS011;732;51.698;4.886;2022-08-19T03:11:19;49.07;;;22.97;;
1479;SDS011;732;51.698;4.886;2022-08-19T03:13:50;49.23;;;24.17;;
1479;SDS011;732;51.698;4.886;2022-08-19T03:16:20;46.37;;;23.67;;
1479;SDS011;732;51.698;4.886;2022-08-19T03:18:51;56.40;;;25.20;;
1479;SDS011;732;51.698;4.886;2022-08-19T03:21:21;59.10;;;26.87;;
1479;SDS011;732;51.698;4.886;2022-08-19T03:23:53;55.90;;;26.77;;
1479;SDS011;732;51.698;4.886;2022-08-19T03:26:24;46.60;;;24.40;;
1479;SDS011;732;51.698;4.886;2022-08-19T03:28:52;53.50;;;24.93;;
1479;SDS011;732;51.698;4.886;2022-08-19T03:31:25;52.47;;;23.73;;
1479;SDS011;732;51.698;4.886;2022-08-19T03:34:15;54.03;;;25.00;;
1479;SDS011;732;51.698;4.886;2022-08-19T03:36:47;58.17;;;25.50;;
1479;SDS011;732;51.698;4.886;2022-08-19T03:39:15;53.97;;;26.40;;
1479;SDS011;732;51.698;4.886;2022-08-19T03:41:46;60.47;;;26.47;;
1479;SDS011;732;51.698;4.886;2022-08-19T03:44:37;59.33;;;25.67;;
1479;SDS011;732;51.698;4.886;2022-08-19T03:47:05;60.47;;;25.50;;
1479;SDS011;732;51.698;4.886;2022-08-19T03:49:34;59.43;;;26.40;;
1479;SDS011;732;51.698;4.886;2022-08-19T03:52:03;66.83;;;26.33;;
1479;SDS011;732;51.698;4.886;2022-08-19T03:54:34;58.67;;;25.50;;
1479;SDS011;732;51.698;4.886;2022-08-19T03:57:05;56.33;;;23.97;;
1479;SDS011;732;51.698;4.886;2022-08-19T03:59:35;62.07;;;25.77;;
1479;SDS011;732;51.698;4.886;2022-08-19T04:02:06;73.50;;;29.47;;
1479;SDS011;732;51.698;4.886;2022-08-19T04:04:38;62.63;;;26.40;;
1479;SDS011;732;51.698;4.886;2022-08-19T04:07:10;70.13;;;28.30;;
1479;SDS011;732;51.698;4.886;2022-08-19T04:09:42;71.47;;;25.70;;
1479;SDS011;732;51.698;4.886;2022-08-19T04:12:12;70.37;;;28.10;;
1479;SDS011;732;51.698;4.886;2022-08-19T04:14:41;61.67;;;26.47;;
1479;SDS011;732;51.698;4.886;2022-08-19T04:17:10;66.17;;;27.27;;
1479;SDS011;732;51.698;4.886;2022-08-19T04:19:40;71.93;;;27.90;;
1479;SDS011;732;51.698;4.886;2022-08-19T04:22:10;58.93;;;26.77;;
1479;SDS011;732;51.698;4.886;2022-08-19T04:24:39;64.93;;;28.53;;
1479;SDS011;732;51.698;4.886;2022-08-19T04:27:07;78.57;;;28.70;;
1479;SDS011;732;51.698;4.886;2022-08-19T04:29:37;69.37;;;27.90;;
1479;SDS011;732;51.698;4.886;2022-08-19T04:32:06;65.73;;;28.70;;
1479;SDS011;732;51.698;4.886;2022-08-19T04:34:36;73.80;;;29.30;;
1479;SDS011;732;51.698;4.886;2022-08-19T04:37:25;65.10;;;28.50;;
1479;SDS011;732;51.698;4.886;2022-08-19T04:40:04;78.40;;;29.10;;
1479;SDS011;732;51.698;4.886;2022-08-19T04:42:50;72.37;;;29.03;;
1479;SDS011;732;51.698;4.886;2022-08-19T04:45:21;75.33;;;29.13;;
1479;SDS011;732;51.698;4.886;2022-08-19T04:47:54;68.20;;;27.47;;
1479;SDS011;732;51.698;4.886;2022-08-19T04:50:44;76.00;;;27.80;;
1479;SDS011;732;51.698;4.886;2022-08-19T04:53:13;69.93;;;29.23;;
1479;SDS011;732;51.698;4.886;2022-08-19T04:55:41;71.70;;;29.57;;
1479;SDS011;732;51.698;4.886;2022-08-19T04:58:10;69.40;;;30.23;;
1479;SDS011;732;51.698;4.886;2022-08-19T05:00:39;71.60;;;29.53;;
1479;SDS011;732;51.698;4.886;2022-08-19T05:03:08;64.20;;;29.10;;
1479;SDS011;732;51.698;4.886;2022-08-19T05:05:38;60.80;;;27.20;;
1479;SDS011;732;51.698;4.886;2022-08-19T05:08:10;65.87;;;27.33;;
1479;SDS011;732;51.698;4.886;2022-08-19T05:10:41;61.70;;;28.13;;
1479;SDS011;732;51.698;4.886;2022-08-19T05:13:10;61.50;;;27.03;;
1479;SDS011;732;51.698;4.886;2022-08-19T05:15:40;52.60;;;25.07;;
1479;SDS011;732;51.698;4.886;2022-08-19T05:18:09;53.70;;;26.43;;
1479;SDS011;732;51.698;4.886;2022-08-19T05:20:55;56.67;;;24.17;;
1479;SDS011;732;51.698;4.886;2022-08-19T05:23:41;52.17;;;25.47;;
1479;SDS011;732;51.698;4.886;2022-08-19T05:26:10;57.47;;;24.97;;
1479;SDS011;732;51.698;4.886;2022-08-19T05:28:39;58.10;;;26.20;;
1479;SDS011;732;51.698;4.886;2022-08-19T05:31:09;55.03;;;23.87;;
1479;SDS011;732;51.698;4.886;2022-08-19T05:33:37;50.33;;;24.23;;
1479;SDS011;732;51.698;4.886;2022-08-19T05:36:06;52.10;;;24.97;;
1479;SDS011;732;51.698;4.886;2022-08-19T05:38:35;47.23;;;22.23;;
1479;SDS011;732;51.698;4.886;2022-08-19T05:41:06;47.50;;;22.20;;
1479;SDS011;732;51.698;4.886;2022-08-19T05:43:36;46.43;;;22.80;;
1479;SDS011;732;51.698;4.886;2022-08-19T05:46:04;57.00;;;22.93;;
1479;SDS011;732;51.698;4.886;2022-08-19T05:48:36;52.67;;;22.87;;
1479;SDS011;732;51.698;4.886;2022-08-19T05:51:05;54.77;;;22.17;;
1479;SDS011;732;51.698;4.886;2022-08-19T05:53:35;52.53;;;21.40;;
1479;SDS011;732;51.698;4.886;2022-08-19T05:56:04;50.07;;;22.03;;
1479;SDS011;732;51.698;4.886;2022-08-19T05:58:33;48.23;;;22.33;;
1479;SDS011;732;51.698;4.886;2022-08-19T06:01:03;49.40;;;22.27;;
1479;SDS011;732;51.698;4.886;2022-08-19T06:03:38;43.17;;;20.93;;
1479;SDS011;732;51.698;4.886;2022-08-19T06:06:07;54.00;;;22.93;;
1479;SDS011;732;51.698;4.886;2022-08-19T06:08:38;57.73;;;22.43;;
1479;SDS011;732;51.698;4.886;2022-08-19T06:11:13;44.70;;;21.20;;
1479;SDS011;732;51.698;4.886;2022-08-19T06:13:46;48.90;;;20.90;;
1479;SDS011;732;51.698;4.886;2022-08-19T06:16:25;49.73;;;22.67;;
1479;SDS011;732;51.698;4.886;2022-08-19T06:18:56;45.73;;;21.20;;
1479;SDS011;732;51.698;4.886;2022-08-19T06:21:28;43.57;;;20.07;;
1479;SDS011;732;51.698;4.886;2022-08-19T06:23:57;51.97;;;22.67;;
1479;SDS011;732;51.698;4.886;2022-08-19T06:26:27;41.83;;;22.03;;
1479;SDS011;732;51.698;4.886;2022-08-19T06:28:56;43.90;;;20.57;;
1479;SDS011;732;51.698;4.886;2022-08-19T06:31:26;43.73;;;20.97;;
1479;SDS011;732;51.698;4.886;2022-08-19T06:33:59;50.27;;;21.03;;
1479;SDS011;732;51.698;4.886;2022-08-19T06:36:30;45.30;;;22.10;;
1479;SDS011;732;51.698;4.886;2022-08-19T06:39:01;42.67;;;20.47;;
1479;SDS011;732;51.698;4.886;2022-08-19T06:41:34;51.43;;;21.57;;
1479;SDS011;732;51.698;4.886;2022-08-19T06:44:15;42.77;;;19.83;;
1479;SDS011;732;51.698;4.886;2022-08-19T06:46:45;40.70;;;20.40;;
1479;SDS011;732;51.698;4.886;2022-08-19T06:49:22;36.43;;;18.13;;
1479;SDS011;732;51.698;4.886;2022-08-19T06:51:58;41.20;;;19.43;;
1479;SDS011;732;51.698;4.886;2022-08-19T06:54:27;40.90;;;20.20;;
1479;SDS011;732;51.698;4.886;2022-08-19T06:57:03;39.77;;;19.87;;
1479;SDS011;732;51.698;4.886;2022-08-19T06:59:31;43.27;;;19.97;;
1479;SDS011;732;51.698;4.886;2022-08-19T07:02:02;38.97;;;19.23;;
1479;SDS011;732;51.698;4.886;2022-08-19T07:04:35;42.63;;;20.80;;
1479;SDS011;732;51.698;4.886;2022-08-19T07:07:08;39.53;;;19.57;;
1479;SDS011;732;51.698;4.886;2022-08-19T07:09:47;38.30;;;17.80;;
1479;SDS011;732;51.698;4.886;2022-08-19T07:12:26;38.57;;;18.23;;
1479;SDS011;732;51.698;4.886;2022-08-19T07:15:04;37.57;;;17.97;;
1479;SDS011;732;51.698;4.886;2022-08-19T07:17:35;45.37;;;18.83;;
1479;SDS011;732;51.698;4.886;2022-08-19T07:20:07;35.50;;;19.40;;
1479;SDS011;732;51.698;4.886;2022-08-19T07:22:37;40.73;;;19.77;;
1479;SDS011;732;51.698;4.886;2022-08-19T07:25:06;37.20;;;18.10;;
1479;SDS011;732;51.698;4.886;2022-08-19T07:27:36;34.23;;;17.83;;
1479;SDS011;732;51.698;4.886;2022-08-19T07:30:05;43.07;;;20.10;;
1479;SDS011;732;51.698;4.886;2022-08-19T07:32:40;39.77;;;18.60;;
1479;SDS011;732;51.698;4.886;2022-08-19T07:35:10;38.00;;;20.57;;
1479;SDS011;732;51.698;4.886;2022-08-19T07:37:38;48.80;;;19.40;;
1479;SDS011;732;51.698;4.886;2022-08-19T07:40:10;41.37;;;20.17;;
1479;SDS011;732;51.698;4.886;2022-08-19T07:42:39;41.63;;;19.07;;
1479;SDS011;732;51.698;4.886;2022-08-19T07:45:09;39.30;;;19.73;;
1479;SDS011;732;51.698;4.886;2022-08-19T07:47:37;41.87;;;19.77;;
1479;SDS011;732;51.698;4.886;2022-08-19T07:50:18;36.33;;;20.50;;
1479;SDS011;732;51.698;4.886;2022-08-19T07:52:47;39.00;;;20.17;;
1479;SDS011;732;51.698;4.886;2022-08-19T07:55:18;35.27;;;20.60;;
1479;SDS011;732;51.698;4.886;2022-08-19T07:58:09;39.73;;;20.83;;
1479;SDS011;732;51.698;4.886;2022-08-19T08:00:40;40.17;;;20.57;;
1479;SDS011;732;51.698;4.886;2022-08-19T08:03:10;38.00;;;20.10;;
1479;SDS011;732;51.698;4.886;2022-08-19T08:05:42;38.10;;;20.13;;
1479;SDS011;732;51.698;4.886;2022-08-19T08:08:29;35.23;;;18.97;;
1479;SDS011;732;51.698;4.886;2022-08-19T08:11:14;38.37;;;20.13;;
1479;SDS011;732;51.698;4.886;2022-08-19T08:13:46;36.43;;;19.23;;
1479;SDS011;732;51.698;4.886;2022-08-19T08:16:27;39.53;;;19.07;;
1479;SDS011;732;51.698;4.886;2022-08-19T08:18:57;35.77;;;19.63;;
1479;SDS011;732;51.698;4.886;2022-08-19T08:21:28;39.53;;;19.40;;
1479;SDS011;732;51.698;4.886;2022-08-19T08:23:56;36.50;;;19.60;;
1479;SDS011;732;51.698;4.886;2022-08-19T08:26:26;35.30;;;22.03;;
1479;SDS011;732;51.698;4.886;2022-08-19T08:28:54;35.83;;;18.60;;
1479;SDS011;732;51.698;4.886;2022-08-19T08:31:23;32.63;;;19.03;;
1479;SDS011;732;51.698;4.886;2022-08-19T08:33:51;33.87;;;17.70;;
1479;SDS011;732;51.698;4.886;2022-08-19T08:36:19;28.97;;;17.23;;
1479;SDS011;732;51.698;4.886;2022-08-19T08:38:49;31.93;;;18.33;;
1479;SDS011;732;51.698;4.886;2022-08-19T08:41:21;29.13;;;18.37;;
1479;SDS011;732;51.698;4.886;2022-08-19T08:43:56;32.37;;;17.97;;
1479;SDS011;732;51.698;4.886;2022-08-19T08:46:27;29.83;;;16.67;;
1479;SDS011;732;51.698;4.886;2022-08-19T08:49:05;31.50;;;18.40;;
1479;SDS011;732;51.698;4.886;2022-08-19T08:51:54;26.80;;;16.07;;
1479;SDS011;732;51.698;4.886;2022-08-19T08:54:34;24.90;;;16.60;;
1479;SDS011;732;51.698;4.886;2022-08-19T08:57:23;30.40;;;16.67;;
1479;SDS011;732;51.698;4.886;2022-08-19T09:00:07;23.13;;;14.77;;
1479;SDS011;732;51.698;4.886;2022-08-19T09:02:42;25.23;;;15.20;;
1479;SDS011;732;51.698;4.886;2022-08-19T09:05:16;21.50;;;14.30;;
1479;SDS011;732;51.698;4.886;2022-08-19T09:07:53;23.90;;;14.23;;
1479;SDS011;732;51.698;4.886;2022-08-19T09:10:31;18.30;;;13.07;;
1479;SDS011;732;51.698;4.886;2022-08-19T09:13:11;18.97;;;13.30;;
1479;SDS011;732;51.698;4.886;2022-08-19T09:15:50;18.40;;;12.73;;
1479;SDS011;732;51.698;4.886;2022-08-19T09:18:24;16.93;;;12.70;;
1479;SDS011;732;51.698;4.886;2022-08-19T09:20:55;17.27;;;12.17;;
1479;SDS011;732;51.698;4.886;2022-08-19T09:23:23;17.00;;;13.10;;
1479;SDS011;732;51.698;4.886;2022-08-19T09:25:54;15.50;;;11.57;;
1479;SDS011;732;51.698;4.886;2022-08-19T09:28:25;18.27;;;11.23;;
1479;SDS011;732;51.698;4.886;2022-08-19T09:30:57;17.90;;;12.37;;
1479;SDS011;732;51.698;4.886;2022-08-19T09:33:26;18.67;;;12.57;;
1479;SDS011;732;51.698;4.886;2022-08-19T09:36:01;14.80;;;10.83;;
1479;SDS011;732;51.698;4.886;2022-08-19T09:38:34;18.27;;;11.23;;
1479;SDS011;732;51.698;4.886;2022-08-19T09:41:11;16.40;;;11.33;;
1479;SDS011;732;51.698;4.886;2022-08-19T09:43:44;16.40;;;12.33;;
1479;SDS011;732;51.698;4.886;2022-08-19T09:46:19;15.07;;;11.10;;
1479;SDS011;732;51.698;4.886;2022-08-19T09:48:49;14.60;;;10.03;;
1479;SDS011;732;51.698;4.886;2022-08-19T09:51:19;16.90;;;12.80;;
1479;SDS011;732;51.698;4.886;2022-08-19T09:53:53;17.50;;;11.10;;
1479;SDS011;732;51.698;4.886;2022-08-19T09:56:31;16.10;;;10.77;;
1479;SDS011;732;51.698;4.886;2022-08-19T09:59:01;15.47;;;10.80;;
1479;SDS011;732;51.698;4.886;2022-08-19T10:01:31;15.50;;;10.70;;
1479;SDS011;732;51.698;4.886;2022-08-19T10:04:00;13.63;;;10.83;;
1479;SDS011;732;51.698;4.886;2022-08-19T10:06:45;14.10;;;11.73;;
1479;SDS011;732;51.698;4.886;2022-08-19T10:09:20;14.77;;;11.60;;
1479;SDS011;732;51.698;4.886;2022-08-19T10:12:00;16.63;;;11.37;;
1479;SDS011;732;51.698;4.886;2022-08-19T10:14:31;13.87;;;11.00;;
1479;SDS011;732;51.698;4.886;2022-08-19T10:17:01;14.17;;;10.60;;
1479;SDS011;732;51.698;4.886;2022-08-19T10:19:47;14.30;;;11.07;;
1479;SDS011;732;51.698;4.886;2022-08-19T10:22:21;14.67;;;11.00;;
1479;SDS011;732;51.698;4.886;2022-08-19T10:24:51;14.93;;;10.70;;
1479;SDS011;732;51.698;4.886;2022-08-19T10:27:21;14.70;;;11.07;;
1479;SDS011;732;51.698;4.886;2022-08-19T10:29:51;11.53;;;9.20;;
1479;SDS011;732;51.698;4.886;2022-08-19T10:32:20;13.23;;;10.50;;
1479;SDS011;732;51.698;4.886;2022-08-19T10:34:59;13.90;;;10.50;;
1479;SDS011;732;51.698;4.886;2022-08-19T10:37:31;13.63;;;9.67;;
1479;SDS011;732;51.698;4.886;2022-08-19T10:40:00;15.73;;;10.43;;
1479;SDS011;732;51.698;4.886;2022-08-19T10:42:32;13.10;;;8.87;;
1479;SDS011;732;51.698;4.886;2022-08-19T10:45:01;12.63;;;9.60;;
1479;SDS011;732;51.698;4.886;2022-08-19T10:47:32;9.70;;;8.50;;
1479;SDS011;732;51.698;4.886;2022-08-19T10:50:00;12.20;;;9.50;;
1479;SDS011;732;51.698;4.886;2022-08-19T10:52:53;15.43;;;10.40;;
1479;SDS011;732;51.698;4.886;2022-08-19T10:55:23;14.50;;;11.00;;
1479;SDS011;732;51.698;4.886;2022-08-19T10:58:11;12.10;;;9.90;;
1479;SDS011;732;51.698;4.886;2022-08-19T11:00:42;11.67;;;9.10;;
1479;SDS011;732;51.698;4.886;2022-08-19T11:03:19;12.90;;;9.27;;
1479;SDS011;732;51.698;4.886;2022-08-19T11:05:56;10.47;;;8.13;;
1479;SDS011;732;51.698;4.886;2022-08-19T11:08:26;9.60;;;7.90;;
1479;SDS011;732;51.698;4.886;2022-08-19T11:10:59;11.13;;;8.20;;
1479;SDS011;732;51.698;4.886;2022-08-19T11:13:31;14.67;;;11.30;;
1479;SDS011;732;51.698;4.886;2022-08-19T11:16:04;15.53;;;10.10;;
1479;SDS011;732;51.698;4.886;2022-08-19T11:18:37;15.33;;;9.90;;
1479;SDS011;732;51.698;4.886;2022-08-19T11:21:10;10.37;;;7.87;;
1479;SDS011;732;51.698;4.886;2022-08-19T11:23:43;6.97;;;5.90;;
1479;SDS011;732;51.698;4.886;2022-08-19T11:26:13;6.90;;;5.30;;
1479;SDS011;732;51.698;4.886;2022-08-19T11:28:43;6.50;;;4.60;;
1479;SDS011;732;51.698;4.886;2022-08-19T11:31:13;5.70;;;4.70;;
1479;SDS011;732;51.698;4.886;2022-08-19T11:33:44;5.00;;;4.50;;
1479;SDS011;732;51.698;4.886;2022-08-19T11:36:16;7.60;;;5.40;;
1479;SDS011;732;51.698;4.886;2022-08-19T11:38:47;9.67;;;7.70;;
1479;SDS011;732;51.698;4.886;2022-08-19T11:41:16;9.17;;;7.00;;
1479;SDS011;732;51.698;4.886;2022-08-19T11:43:48;11.20;;;7.70;;
1479;SDS011;732;51.698;4.886;2022-08-19T11:46:17;13.40;;;9.43;;
1479;SDS011;732;51.698;4.886;2022-08-19T11:48:45;15.73;;;10.73;;
1479;SDS011;732;51.698;4.886;2022-08-19T11:51:15;13.70;;;9.40;;
1479;SDS011;732;51.698;4.886;2022-08-19T11:53:46;12.77;;;9.80;;
1479;SDS011;732;51.698;4.886;2022-08-19T11:56:14;18.70;;;10.70;;
1479;SDS011;732;51.698;4.886;2022-08-19T11:58:43;17.30;;;10.20;;
1479;SDS011;732;51.698;4.886;2022-08-19T12:01:14;14.70;;;10.00;;
1479;SDS011;732;51.698;4.886;2022-08-19T12:03:45;16.57;;;10.30;;
1479;SDS011;732;51.698;4.886;2022-08-19T12:06:17;20.03;;;11.80;;
1479;SDS011;732;51.698;4.886;2022-08-19T12:08:50;21.07;;;11.97;;
1479;SDS011;732;51.698;4.886;2022-08-19T12:11:20;18.33;;;12.50;;
1479;SDS011;732;51.698;4.886;2022-08-19T12:13:49;18.67;;;11.50;;
1479;SDS011;732;51.698;4.886;2022-08-19T12:16:19;18.60;;;11.57;;
1479;SDS011;732;51.698;4.886;2022-08-19T12:18:52;26.37;;;13.73;;
1479;SDS011;732;51.698;4.886;2022-08-19T12:21:22;25.27;;;13.33;;
1479;SDS011;732;51.698;4.886;2022-08-19T12:23:55;26.50;;;14.60;;
1479;SDS011;732;51.698;4.886;2022-08-19T12:26:26;21.50;;;13.50;;
1479;SDS011;732;51.698;4.886;2022-08-19T12:28:58;20.03;;;11.77;;
1479;SDS011;732;51.698;4.886;2022-08-19T12:31:28;18.93;;;11.13;;
1479;SDS011;732;51.698;4.886;2022-08-19T12:33:58;20.97;;;12.30;;
1479;SDS011;732;51.698;4.886;2022-08-19T12:36:28;19.30;;;11.07;;
1479;SDS011;732;51.698;4.886;2022-08-19T12:38:58;17.43;;;11.10;;
1479;SDS011;732;51.698;4.886;2022-08-19T12:41:27;20.23;;;11.00;;
1479;SDS011;732;51.698;4.886;2022-08-19T12:43:55;18.30;;;10.87;;
1479;SDS011;732;51.698;4.886;2022-08-19T12:46:24;18.57;;;11.37;;
1479;SDS011;732;51.698;4.886;2022-08-19T12:48:54;17.90;;;10.27;;
1479;SDS011;732;51.698;4.886;2022-08-19T12:51:30;20.27;;;11.40;;
1479;SDS011;732;51.698;4.886;2022-08-19T12:53:58;18.60;;;10.90;;
1479;SDS011;732;51.698;4.886;2022-08-19T12:56:27;20.03;;;12.17;;
1479;SDS011;732;51.698;4.886;2022-08-19T12:58:56;18.87;;;9.60;;
1479;SDS011;732;51.698;4.886;2022-08-19T13:01:26;18.83;;;9.70;;
1479;SDS011;732;51.698;4.886;2022-08-19T13:04:00;16.60;;;10.87;;
1479;SDS011;732;51.698;4.886;2022-08-19T13:06:28;15.93;;;9.40;;
1479;SDS011;732;51.698;4.886;2022-08-19T13:08:57;13.30;;;8.33;;
1479;SDS011;732;51.698;4.886;2022-08-19T13:11:25;15.03;;;9.20;;
1479;SDS011;732;51.698;4.886;2022-08-19T13:13:58;13.37;;;7.97;;
1479;SDS011;732;51.698;4.886;2022-08-19T13:16:28;17.67;;;9.80;;
1479;SDS011;732;51.698;4.886;2022-08-19T13:18:57;13.23;;;8.30;;
1479;SDS011;732;51.698;4.886;2022-08-19T13:21:27;11.87;;;7.50;;
1479;SDS011;732;51.698;4.886;2022-08-19T13:23:56;14.03;;;8.10;;
1479;SDS011;732;51.698;4.886;2022-08-19T13:26:24;11.70;;;7.70;;
1479;SDS011;732;51.698;4.886;2022-08-19T13:28:53;11.17;;;8.07;;
1479;SDS011;732;51.698;4.886;2022-08-19T13:31:39;10.63;;;7.10;;
1479;SDS011;732;51.698;4.886;2022-08-19T13:34:29;10.27;;;7.20;;
1479;SDS011;732;51.698;4.886;2022-08-19T13:37:02;10.93;;;7.20;;
1479;SDS011;732;51.698;4.886;2022-08-19T13:39:32;9.37;;;6.43;;
1479;SDS011;732;51.698;4.886;2022-08-19T13:42:01;10.43;;;6.80;;
1479;SDS011;732;51.698;4.886;2022-08-19T13:44:31;12.07;;;6.60;;
1479;SDS011;732;51.698;4.886;2022-08-19T13:47:00;10.10;;;6.93;;
1479;SDS011;732;51.698;4.886;2022-08-19T13:49:33;9.40;;;6.57;;
1479;SDS011;732;51.698;4.886;2022-08-19T13:52:04;10.80;;;6.67;;
1479;SDS011;732;51.698;4.886;2022-08-19T13:54:33;10.83;;;7.80;;
1479;SDS011;732;51.698;4.886;2022-08-19T13:57:02;14.07;;;7.60;;
1479;SDS011;732;51.698;4.886;2022-08-19T13:59:30;11.80;;;6.70;;
1479;SDS011;732;51.698;4.886;2022-08-19T14:01:59;11.30;;;7.93;;
1479;SDS011;732;51.698;4.886;2022-08-19T14:04:28;13.47;;;8.43;;
1479;SDS011;732;51.698;4.886;2022-08-19T14:06:56;14.87;;;8.60;;
1479;SDS011;732;51.698;4.886;2022-08-19T14:09:26;16.23;;;10.20;;
1479;SDS011;732;51.698;4.886;2022-08-19T14:11:55;16.03;;;9.80;;
1479;SDS011;732;51.698;4.886;2022-08-19T14:14:23;17.70;;;10.70;;
1479;SDS011;732;51.698;4.886;2022-08-19T14:16:52;14.03;;;8.53;;
1479;SDS011;732;51.698;4.886;2022-08-19T14:19:21;13.07;;;8.27;;
1479;SDS011;732;51.698;4.886;2022-08-19T14:21:55;12.60;;;7.70;;
1479;SDS011;732;51.698;4.886;2022-08-19T14:24:24;16.13;;;8.77;;
1479;SDS011;732;51.698;4.886;2022-08-19T14:26:54;16.30;;;8.90;;
1479;SDS011;732;51.698;4.886;2022-08-19T14:29:22;13.37;;;8.57;;
1479;SDS011;732;51.698;4.886;2022-08-19T14:31:52;10.20;;;6.60;;
1479;SDS011;732;51.698;4.886;2022-08-19T14:34:22;10.57;;;6.80;;
1479;SDS011;732;51.698;4.886;2022-08-19T14:36:51;13.67;;;7.17;;
1479;SDS011;732;51.698;4.886;2022-08-19T14:39:20;12.20;;;7.60;;
1479;SDS011;732;51.698;4.886;2022-08-19T14:41:50;9.47;;;5.63;;
1479;SDS011;732;51.698;4.886;2022-08-19T14:44:18;11.73;;;6.47;;
1479;SDS011;732;51.698;4.886;2022-08-19T14:46:46;10.57;;;5.80;;
1479;SDS011;732;51.698;4.886;2022-08-19T14:49:15;8.63;;;5.30;;
1479;SDS011;732;51.698;4.886;2022-08-19T14:51:44;8.90;;;6.17;;
1479;SDS011;732;51.698;4.886;2022-08-19T14:54:13;7.27;;;4.63;;
1479;SDS011;732;51.698;4.886;2022-08-19T14:56:42;4.63;;;3.50;;
1479;SDS011;732;51.698;4.886;2022-08-19T14:59:13;6.40;;;4.23;;
1479;SDS011;732;51.698;4.886;2022-08-19T15:01:41;6.50;;;4.67;;
1479;SDS011;732;51.698;4.886;2022-08-19T15:04:10;8.07;;;4.73;;
1479;SDS011;732;51.698;4.886;2022-08-19T15:06:38;7.70;;;5.53;;
1479;SDS011;732;51.698;4.886;2022-08-19T15:09:10;6.60;;;5.00;;
1479;SDS011;732;51.698;4.886;2022-08-19T15:11:39;8.90;;;6.53;;
1479;SDS011;732;51.698;4.886;2022-08-19T15:14:07;9.43;;;6.07;;
1479;SDS011;732;51.698;4.886;2022-08-19T15:16:37;8.43;;;6.50;;
1479;SDS011;732;51.698;4.886;2022-08-19T15:19:08;9.17;;;6.97;;
1479;SDS011;732;51.698;4.886;2022-08-19T15:21:38;8.93;;;5.87;;
1479;SDS011;732;51.698;4.886;2022-08-19T15:24:06;9.80;;;6.50;;
1479;SDS011;732;51.698;4.886;2022-08-19T15:26:35;7.80;;;5.93;;
1479;SDS011;732;51.698;4.886;2022-08-19T15:29:04;8.30;;;6.47;;
1479;SDS011;732;51.698;4.886;2022-08-19T15:31:32;10.03;;;6.60;;
1479;SDS011;732;51.698;4.886;2022-08-19T15:34:05;9.50;;;7.27;;